FW9069 Weather Reports


time (UTC)temp
C
wind
direction
speed
KPH
gust
KPH
rain 1hr
cm
rain 24hr
cm
rain mn
cm
humidity
%
barometer
mb
20220627204832 30 184 6.4 17.7 0.00 0.00 0.00 44 1015.3
20220627203333 30 263 9.7 19.3 0.00 0.00 0.00 41 1015.4
20220627201841 30 245 8.0 14.5 0.00 0.00 0.00 39 1015.3
20220627200323 30 157 4.8 14.5 0.00 0.00 0.00 41 1015.4
20220627194828 29 202 6.4 16.1 0.00 0.00 0.00 45 1015.4
20220627193329 28 206 3.2 12.9 0.00 0.00 0.00 48 1015.5
20220627191829 28 173 6.4 12.9 0.00 0.00 0.00 50 1015.5
20220627190335 28 256 6.4 11.3 0.00 0.00 0.00 44 1015.7
20220627184836 28 180 4.8 12.9 0.00 0.00 0.00 47 1015.7
20220627183315 27 178 3.2 11.3 0.00 0.00 0.00 52 1015.6
20220627181825 27 235 4.8 11.3 0.00 0.00 0.00 55 1015.7
20220627180328 26 192 1.6 8.0 0.00 0.00 0.00 56 1015.7
20220627174831 25 200 3.2 8.0 0.00 0.00 0.00 55 1015.8
20220627173331 25 250 4.8 9.7 0.00 0.00 0.00 57 1015.6
20220627171833 24 175 4.8 11.3 0.00 0.00 0.00 56 1015.9
20220627170328 23 206 1.6 6.4 0.00 0.00 0.00 55 1016.0
20220627164828 22 140 3.2 6.4 0.00 0.00 0.00 59 1016.1
20220627163327 22 104 3.2 6.4 0.00 0.00 0.00 61 1016.2
20220627161829 21 103 4.8 8.0 0.00 0.00 0.00 63 1016.3
20220627160330 20 85 4.8 6.4 0.00 0.00 0.00 66 1016.2
20220627154836 20 131 3.2 6.4 0.00 0.00 0.00 66 1016.1
20220627153316 20 125 3.2 6.4 0.00 0.00 0.00 68 1016.1
20220627151825 19 67 3.2 6.4 0.00 0.00 0.00 69 1016.0
20220627150327 19 80 6.4 8.0 0.00 0.00 0.00 68 1016.2
20220627144828 19 99 4.8 8.0 0.00 0.00 0.00 67 1016.1
20220627143328 19 43 3.2 6.4 0.00 0.00 0.00 67 1015.9
20220627141827 19 287 4.8 9.7 0.00 0.00 0.00 59 1015.9
20220627140329 18 290 6.4 8.0 0.00 0.00 0.00 64 1015.8
20220627134832 18 264 4.8 8.0 0.00 0.00 0.00 67 1015.8
20220627133331 17 258 3.2 8.0 0.00 0.00 0.00 69 1015.6
20220627131833 16 243 1.6 3.2 0.00 0.00 0.00 73 1015.7
20220627130337 16 243 3.2 4.8 0.00 0.00 0.00 75 1015.7
20220627124822 16 243 1.6 4.8 0.00 0.00 0.00 76 1015.9
20220627123322 16 251 3.2 4.8 0.00 0.00 0.00 76 1015.8
20220627121824 16 252 0.0 3.2 0.00 0.00 0.00 75 1015.8
20220627120328 17 251 0.0 3.2 0.00 0.00 0.00 72 1015.6
20220627114830 17 256 4.8 8.0 0.00 0.00 0.00 70 1015.6
20220627113331 17 249 3.2 8.0 0.00 0.00 0.00 68 1015.6
20220627111834 17 267 4.8 12.9 0.00 0.00 0.00 65 1015.2
20220627110317 18 248 4.8 9.7 0.00 0.00 0.00 65 1015.3
20220627104826 18 254 3.2 8.0 0.00 0.00 0.00 66 1015.3
20220627103331 18 274 3.2 6.4 0.00 0.00 0.00 65 1015.3
20220627101814 18 281 4.8 9.7 0.00 0.00 0.00 65 1015.3
20220627100326 18 291 3.2 8.0 0.00 0.00 0.00 65 1015.3
20220627094830 18 282 3.2 6.4 0.00 0.00 0.00 65 1015.3
20220627093328 18 278 3.2 6.4 0.00 0.00 0.00 63 1015.3
20220627091829 18 275 4.8 11.3 0.00 0.00 0.00 63 1015.3
20220627090336 18 287 11.3 17.7 0.00 0.00 0.00 62 1015.5
20220627084820 19 266 6.4 14.5 0.00 0.00 0.00 62 1015.5
20220627083323 19 261 6.4 11.3 0.00 0.00 0.00 60 1015.7
20220627081823 20 244 4.8 11.3 0.00 0.00 0.00 60 1015.6
20220627080326 20 261 6.4 12.9 0.00 0.00 0.00 59 1015.5
20220627074830 21 262 8.0 14.5 0.00 0.00 0.00 59 1015.2
20220627073334 20 277 3.2 8.0 0.00 0.00 0.00 61 1015.2
20220627071837 20 277 9.7 14.5 0.00 0.00 0.00 62 1014.9
20220627070317 20 290 6.4 12.9 0.00 0.00 0.00 64 1015.1
20220627064818 21 263 4.8 11.3 0.00 0.00 0.00 63 1015.1
20220627063328 21 256 6.4 9.7 0.00 0.00 0.00 60 1015.1
20220627061831 22 225 4.8 14.5 0.00 0.00 0.00 55 1015.2
20220627060334 23 270 6.4 16.1 0.00 0.00 0.00 52 1015.0
20220627054816 24 285 6.4 14.5 0.00 0.00 0.00 52 1014.7
20220627053326 25 281 6.4 9.7 0.00 0.00 0.00 45 1014.7
20220627051825 26 267 8.0 14.5 0.00 0.00 0.00 40 1014.6
20220627050324 27 302 8.0 17.7 0.00 0.00 0.00 38 1014.4
20220627044824 27 286 14.5 19.3 0.00 0.00 0.00 38 1014.2
20220627043329 27 292 12.9 25.7 0.00 0.00 0.00 40 1014.2
20220627041831 27 295 11.3 27.4 0.00 0.00 0.00 43 1014.0
20220627040335 27 291 9.7 17.7 0.00 0.00 0.00 42 1014.0
20220627034818 27 249 6.4 16.1 0.00 0.00 0.00 46 1014.1
20220627033327 28 279 9.7 17.7 0.00 0.00 0.00 44 1014.1
20220627031829 31 227 8.0 11.3 0.00 0.00 0.00 43 1013.9
20220627030329 32 250 4.8 9.7 0.00 0.00 0.00 41 1013.9
20220627024832 34 261 4.8 8.0 0.00 0.00 0.00 39 1013.9
20220627023333 35 298 3.2 4.8 0.00 0.00 0.00 35 1013.8
20220627021836 35 358 0.0 6.4 0.00 0.00 0.00 30 1013.8
20220627020337 36 344 0.0 6.4 0.00 0.00 0.00 29 1013.7
20220627014834 36 350 1.6 4.8 0.00 0.00 0.00 30 1013.6
20220627013334 36 285 1.6 6.4 0.00 0.00 0.00 31 1013.4
20220627011838 36 357 3.2 8.0 0.00 0.00 0.00 30 1013.5
20220627010322 36 360 3.2 9.7 0.00 0.00 0.00 28 1013.4
20220627004825 36 9 6.4 11.3 0.00 0.00 0.00 28 1013.5
20220627003326 36 50 4.8 12.9 0.00 0.00 0.00 30 1013.4
20220627001831 36 80 4.8 12.9 0.00 0.00 0.00 29 1013.5
20220627000334 35 332 3.2 9.7 0.00 0.00 0.00 32 1013.7
20220626234835 35 71 8.0 14.5 0.00 0.00 0.00 29 1013.8
20220626233338 35 351 6.4 14.5 0.00 0.00 0.00 32 1014.0
20220626231841 35 17 6.4 16.1 0.00 0.00 0.00 32 1014.2
20220626230326 35 19 9.7 17.7 0.00 0.00 0.00 31 1014.1
20220626224828 35 28 9.7 14.5 0.00 0.00 0.00 32 1014.3
20220626223331 35 348 8.0 16.1 0.00 0.00 0.00 30 1014.3
20220626221832 35 356 8.0 16.1 0.00 0.00 0.00 31 1014.2
20220626220333 35 37 14.5 19.3 0.00 0.00 0.00 32 1014.4
20220626214836 35 39 9.7 17.7 0.00 0.00 0.00 35 1014.4
20220626213335 35 26 3.2 14.5 0.00 0.00 0.00 36 1014.5
20220626211838 35 61 6.4 17.7 0.00 0.00 0.00 33 1014.6
20220626210322 34 29 6.4 19.3 0.00 0.00 0.00 33 1014.7